Time;durP1;ratioP1;P1;durP2;ratioP2;P2;SDS_P1;SDS_P2;PMS_P1;PMS_P2;Temp;Humidity;BMP_temperature;BMP_pressure;BME280_temperature;BME280_humidity;BME280_pressure;Samples;Min_cycle;Max_cycle;Signal;HPM_P1;HPM_P2
2022/05/15 00:02:37;;;;;;;2.67;2.47;;;;;;;;;;4907862;29;20069;-79
2022/05/15 00:05:05;;;;;;;3.75;2.40;;;;;;;;;;4926209;29;20048;-79
2022/05/15 00:07:33;;;;;;;4.65;2.30;;;;;;;;;;4921999;29;20715;-79
2022/05/15 00:10:00;;;;;;;2.25;2.15;;;;;;;;;;4925646;29;20128;-78
2022/05/15 00:12:27;;;;;;;3.22;2.15;;;;;;;;;;4922353;29;20050;-79
2022/05/15 00:14:55;;;;;;;2.70;2.30;;;;;;;;;;4924789;29;20668;-79
2022/05/15 00:17:22;;;;;;;3.60;3.15;;;;;;;;;;4906052;29;20709;-79
2022/05/15 00:19:49;;;;;;;3.45;2.67;;;;;;;;;;4923680;29;20047;-79
2022/05/15 00:22:19;;;;;;;4.18;2.70;;;;;;;;;;4922743;29;20039;-79
2022/05/15 00:24:46;;;;;;;3.10;2.80;;;;;;;;;;4892650;29;20054;-79
2022/05/15 00:27:13;;;;;;;2.65;2.45;;;;;;;;;;4906827;29;20036;-78
2022/05/15 00:29:40;;;;;;;2.60;2.40;;;;;;;;;;4925394;29;20055;-79
2022/05/15 00:32:08;;;;;;;2.60;2.40;;;;;;;;;;4923879;29;20450;-78
2022/05/15 00:34:35;;;;;;;2.90;2.70;;;;;;;;;;4894783;29;20067;-78
2022/05/15 00:37:03;;;;;;;3.55;2.70;;;;;;;;;;4909199;29;20059;-78
2022/05/15 00:39:30;;;;;;;4.65;2.50;;;;;;;;;;4917443;29;20590;-79
2022/05/15 00:41:58;;;;;;;2.78;2.58;;;;;;;;;;4915063;29;20079;-79
2022/05/15 00:44:25;;;;;;;5.07;2.50;;;;;;;;;;4930731;29;20736;-79
2022/05/15 00:46:52;;;;;;;3.15;2.50;;;;;;;;;;4905921;29;20062;-79
2022/05/15 00:49:20;;;;;;;3.55;2.50;;;;;;;;;;4931155;29;20055;-80
2022/05/15 00:51:51;;;;;;;;;;;;;;;;;;4898857;29;20035;-79
2022/05/15 00:54:39;;;;;;;4.28;2.47;;;;;;;;;;4931599;29;19926;-78
2022/05/15 00:57:06;;;;;;;2.45;2.33;;;;;;;;;;4931090;29;20506;-78
2022/05/15 00:59:38;;;;;;;3.53;2.80;;;;;;;;;;4901049;29;20537;-79
2022/05/15 01:02:05;;;;;;;;;;;;;;;;;;4918083;29;20046;-79
2022/05/15 01:04:33;;;;;;;2.53;2.33;;;;;;;;;;4935808;29;19931;-79
2022/05/15 01:07:02;;;;;;;2.78;2.58;;;;;;;;;;4916990;29;20122;-79
2022/05/15 01:09:30;;;;;;;3.15;2.63;;;;;;;;;;4918842;29;20524;-79
2022/05/15 01:11:58;;;;;;;5.55;3.33;;;;;;;;;;4934262;29;20054;-79
2022/05/15 01:14:25;;;;;;;3.85;2.67;;;;;;;;;;4921005;29;20074;-78
2022/05/15 01:16:53;;;;;;;2.63;2.42;;;;;;;;;;4917102;29;20510;-79
2022/05/15 01:19:28;;;;;;;4.57;2.50;;;;;;;;;;4904830;29;20070;-79
2022/05/15 01:21:57;;;;;;;3.97;2.58;;;;;;;;;;4937841;29;20067;-78
2022/05/15 01:24:26;;;;;;;2.95;2.30;;;;;;;;;;4919429;29;20046;-78
2022/05/15 01:26:54;;;;;;;2.72;2.50;;;;;;;;;;4917921;29;20040;-79
2022/05/15 01:29:29;;;;;;;3.78;2.53;;;;;;;;;;4903262;29;20043;-78
2022/05/15 01:31:57;;;;;;;3.45;2.75;;;;;;;;;;4916557;29;20119;-78
2022/05/15 01:34:25;;;;;;;2.60;2.33;;;;;;;;;;4919187;29;20565;-78
2022/05/15 01:36:52;;;;;;;5.50;2.88;;;;;;;;;;4917989;29;20241;-78
2022/05/15 01:39:20;;;;;;;2.60;2.40;;;;;;;;;;4903767;29;20039;-78
2022/05/15 01:41:48;;;;;;;4.35;3.00;;;;;;;;;;4919163;29;20604;-79
2022/05/15 01:44:18;;;;;;;2.70;2.50;;;;;;;;;;4918301;29;20114;-79
2022/05/15 01:46:46;;;;;;;3.55;2.72;;;;;;;;;;4928521;29;20070;-79
2022/05/15 01:49:16;;;;;;;3.47;2.60;;;;;;;;;;4935209;29;20429;-78
2022/05/15 01:51:45;;;;;;;2.95;2.75;;;;;;;;;;4943813;29;20059;-79
2022/05/15 01:54:12;;;;;;;2.95;2.50;;;;;;;;;;4912211;29;20122;-79
2022/05/15 01:56:40;;;;;;;3.72;2.80;;;;;;;;;;4911288;29;20043;-79
2022/05/15 01:59:08;;;;;;;4.43;2.75;;;;;;;;;;4887337;29;20055;-79
2022/05/15 02:01:37;;;;;;;4.30;2.60;;;;;;;;;;4888193;29;20071;-79
2022/05/15 02:04:07;;;;;;;2.80;2.60;;;;;;;;;;4913525;29;20056;-79
2022/05/15 02:06:36;;;;;;;2.70;2.50;;;;;;;;;;4910573;29;20040;-79
2022/05/15 02:09:05;;;;;;;6.03;2.50;;;;;;;;;;4902509;29;20058;-79
2022/05/15 02:11:34;;;;;;;3.10;2.80;;;;;;;;;;4916102;29;20245;-79
2022/05/15 02:14:02;;;;;;;2.53;2.33;;;;;;;;;;4913688;29;20130;-79
2022/05/15 02:16:29;;;;;;;3.15;2.88;;;;;;;;;;4926649;29;20453;-78
2022/05/15 02:18:56;;;;;;;2.60;2.50;;;;;;;;;;4935555;29;20107;-79
2022/05/15 02:21:24;;;;;;;2.58;2.40;;;;;;;;;;4919890;29;20054;-79
2022/05/15 02:23:53;;;;;;;3.05;2.50;;;;;;;;;;4916080;29;20078;-79
2022/05/15 02:26:20;;;;;;;2.55;2.40;;;;;;;;;;4901294;29;20819;-79
2022/05/15 02:28:48;;;;;;;2.30;2.20;;;;;;;;;;4912605;29;20048;-79
2022/05/15 02:31:15;;;;;;;2.72;2.40;;;;;;;;;;4924600;29;20067;-79
2022/05/15 02:33:43;;;;;;;2.60;2.40;;;;;;;;;;4921416;29;20043;-79
2022/05/15 02:36:10;;;;;;;3.30;2.70;;;;;;;;;;4915822;29;20062;-79
2022/05/15 02:38:38;;;;;;;2.90;2.70;;;;;;;;;;4916383;29;20509;-79
2022/05/15 02:41:05;;;;;;;2.80;2.60;;;;;;;;;;4896846;29;20051;-79
2022/05/15 02:43:32;;;;;;;4.05;2.50;;;;;;;;;;4930641;29;20500;-79
2022/05/15 02:46:00;;;;;;;2.63;2.42;;;;;;;;;;4934155;29;20063;-79
2022/05/15 02:51:15;;;;;;;4.07;2.83;;;;;;;;;;4916009;29;20525;-79
2022/05/15 02:53:43;;;;;;;3.03;2.80;;;;;;;;;;4915979;29;20072;-78
2022/05/15 02:56:13;;;;;;;2.50;2.30;;;;;;;;;;4900014;29;20477;-79
2022/05/15 02:58:41;;;;;;;2.88;2.63;;;;;;;;;;4926940;29;20126;-79
2022/05/15 03:01:09;;;;;;;3.25;2.90;;;;;;;;;;4932145;29;20055;-79
2022/05/15 03:03:36;;;;;;;2.85;2.65;;;;;;;;;;4926563;29;20509;-79
2022/05/15 03:06:05;;;;;;;3.20;2.63;;;;;;;;;;4932956;29;20671;-79
2022/05/15 03:08:33;;;;;;;2.95;2.75;;;;;;;;;;4930876;29;20406;-79
2022/05/15 03:11:01;;;;;;;2.92;2.65;;;;;;;;;;4899117;29;20043;-78
2022/05/15 03:13:28;;;;;;;3.22;2.92;;;;;;;;;;4929161;29;20059;-79
2022/05/15 03:15:56;;;;;;;2.70;2.50;;;;;;;;;;4929419;29;20126;-78
2022/05/15 03:18:23;;;;;;;2.70;2.50;;;;;;;;;;4896719;29;20074;-79
2022/05/15 03:20:51;;;;;;;4.32;2.80;;;;;;;;;;4903648;29;20047;-79
2022/05/15 03:23:18;;;;;;;2.50;2.40;;;;;;;;;;4930870;29;20062;-79
2022/05/15 03:25:45;;;;;;;4.35;2.80;;;;;;;;;;4937742;29;20053;-79
2022/05/15 03:28:13;;;;;;;2.85;2.65;;;;;;;;;;4929733;29;20051;-79
2022/05/15 03:30:41;;;;;;;2.60;2.40;;;;;;;;;;4901276;29;20054;-79
2022/05/15 03:33:09;;;;;;;2.47;2.15;;;;;;;;;;4930958;29;20094;-79
2022/05/15 03:35:37;;;;;;;2.70;2.50;;;;;;;;;;4901917;29;20051;-79
2022/05/15 03:38:06;;;;;;;2.80;2.40;;;;;;;;;;4932484;29;20479;-79
2022/05/15 03:40:34;;;;;;;2.70;2.50;;;;;;;;;;4905128;29;20054;-79
2022/05/15 03:43:01;;;;;;;3.55;2.70;;;;;;;;;;4940392;29;20044;-79
2022/05/15 03:45:29;;;;;;;3.15;2.60;;;;;;;;;;4919727;29;20404;-79
2022/05/15 03:47:56;;;;;;;3.10;2.80;;;;;;;;;;4935745;29;20055;-79
2022/05/15 03:50:25;;;;;;;3.55;2.42;;;;;;;;;;4899964;29;20139;-79
2022/05/15 03:52:53;;;;;;;2.58;2.33;;;;;;;;;;4917197;29;20053;-79
2022/05/15 03:55:20;;;;;;;3.38;2.97;;;;;;;;;;4934548;29;20051;-79
2022/05/15 03:57:49;;;;;;;3.10;2.80;;;;;;;;;;4916637;29;20134;-80
2022/05/15 04:00:17;;;;;;;2.45;2.33;;;;;;;;;;4946557;23;20079;-80
2022/05/15 04:02:45;;;;;;;2.78;2.58;;;;;;;;;;4942088;29;20043;-80
2022/05/15 04:05:12;;;;;;;2.33;2.20;;;;;;;;;;4940357;29;20071;-80
2022/05/15 04:07:44;;;;;;;3.83;2.40;;;;;;;;;;4915106;29;20920;-80
2022/05/15 04:10:12;;;;;;;3.92;2.58;;;;;;;;;;4931354;29;20070;-80
2022/05/15 04:12:40;;;;;;;2.55;2.40;;;;;;;;;;4932579;29;20461;-80
2022/05/15 04:15:07;;;;;;;2.50;2.40;;;;;;;;;;4931520;29;20099;-80
2022/05/15 04:17:40;;;;;;;3.15;2.30;;;;;;;;;;4932370;29;20043;-80
2022/05/15 04:20:08;;;;;;;2.60;2.40;;;;;;;;;;4937813;28;20043;-81
2022/05/15 04:22:35;;;;;;;2.97;2.58;;;;;;;;;;4934707;29;20437;-80
2022/05/15 04:25:04;;;;;;;2.60;2.40;;;;;;;;;;4932019;29;20071;-80
2022/05/15 04:27:31;;;;;;;3.05;2.63;;;;;;;;;;4929654;29;20052;-79
2022/05/15 04:29:59;;;;;;;2.72;2.53;;;;;;;;;;4933675;29;20070;-80
2022/05/15 04:32:26;;;;;;;2.83;2.58;;;;;;;;;;4936626;29;20059;-80
2022/05/15 04:34:54;;;;;;;3.70;3.10;;;;;;;;;;4937755;29;20051;-80
2022/05/15 04:37:21;;;;;;;3.58;2.70;;;;;;;;;;4935551;29;20134;-80
2022/05/15 04:39:48;;;;;;;3.00;2.28;;;;;;;;;;4932974;29;20548;-80
2022/05/15 04:42:16;;;;;;;3.35;2.65;;;;;;;;;;4914717;29;20051;-80
2022/05/15 04:44:45;;;;;;;2.75;2.53;;;;;;;;;;4928726;29;20047;-80
2022/05/15 04:47:13;;;;;;;3.33;2.80;;;;;;;;;;4932684;29;20072;-80
2022/05/15 04:49:41;;;;;;;3.78;2.40;;;;;;;;;;4930617;29;20043;-80
2022/05/15 04:52:09;;;;;;;4.05;2.70;;;;;;;;;;4929503;29;20508;-79
2022/05/15 04:54:38;;;;;;;3.28;3.08;;;;;;;;;;4927994;29;20459;-79
2022/05/15 04:57:05;;;;;;;2.92;2.63;;;;;;;;;;4912030;29;20498;-79
2022/05/15 04:59:33;;;;;;;2.65;2.42;;;;;;;;;;4950619;29;20055;-80
2022/05/15 05:02:00;;;;;;;5.45;2.90;;;;;;;;;;4930205;29;20080;-80
2022/05/15 05:04:29;;;;;;;3.10;2.80;;;;;;;;;;4927708;29;20408;-79
2022/05/15 05:06:57;;;;;;;3.50;3.08;;;;;;;;;;4937971;29;20467;-79
2022/05/15 05:09:26;;;;;;;3.60;3.08;;;;;;;;;;4928855;29;20048;-80
2022/05/15 05:11:57;;;;;;;3.28;3.00;;;;;;;;;;4916108;29;20047;-80
2022/05/15 05:14:25;;;;;;;2.70;2.55;;;;;;;;;;4931608;29;20044;-80
2022/05/15 05:16:55;;;;;;;3.25;2.80;;;;;;;;;;4930427;28;20083;-79
2022/05/15 05:19:22;;;;;;;2.92;2.72;;;;;;;;;;4945072;29;20768;-79
2022/05/15 05:21:50;;;;;;;2.80;2.60;;;;;;;;;;4943108;29;20568;-80
2022/05/15 05:24:17;;;;;;;3.15;2.78;;;;;;;;;;4929474;29;20067;-79
2022/05/15 05:26:46;;;;;;;3.03;2.60;;;;;;;;;;4928546;29;20052;-79
2022/05/15 05:29:13;;;;;;;2.85;2.65;;;;;;;;;;4926946;29;20482;-79
2022/05/15 05:31:46;;;;;;;3.97;3.10;;;;;;;;;;4929700;29;20102;-80
2022/05/15 05:34:14;;;;;;;2.75;2.55;;;;;;;;;;4923539;29;20047;-79
2022/05/15 05:37:05;;;;;;;4.20;2.67;;;;;;;;;;4915291;29;20082;-80
2022/05/15 05:39:41;;;;;;;2.47;2.28;;;;;;;;;;4929909;29;20123;-80
2022/05/15 05:42:09;;;;;;;2.80;2.60;;;;;;;;;;4910903;29;20107;-79
2022/05/15 05:44:36;;;;;;;2.70;2.50;;;;;;;;;;4929827;29;20039;-81
2022/05/15 05:47:04;;;;;;;2.90;2.58;;;;;;;;;;4930728;29;20052;-80
2022/05/15 05:49:32;;;;;;;2.90;2.40;;;;;;;;;;4913586;29;20070;-80
2022/05/15 05:51:59;;;;;;;3.20;2.90;;;;;;;;;;4930227;29;20091;-80
2022/05/15 05:54:27;;;;;;;4.97;2.65;;;;;;;;;;4900578;29;20107;-80
2022/05/15 05:56:55;;;;;;;2.55;2.35;;;;;;;;;;4925449;29;20044;-79
2022/05/15 05:59:23;;;;;;;5.78;2.50;;;;;;;;;;4914092;29;20987;-80
2022/05/15 06:01:50;;;;;;;2.95;2.63;;;;;;;;;;4918535;29;20115;-80
2022/05/15 06:07:04;;;;;;;2.70;2.45;;;;;;;;;;4915698;29;20055;-80
2022/05/15 06:09:32;;;;;;;2.92;2.65;;;;;;;;;;4934414;29;20064;-81
2022/05/15 06:12:00;;;;;;;4.93;2.47;;;;;;;;;;4941092;29;20051;-79
2022/05/15 06:14:27;;;;;;;4.13;3.03;;;;;;;;;;4941986;29;20514;-79
2022/05/15 06:16:55;;;;;;;3.47;2.70;;;;;;;;;;4930816;29;20058;-80
2022/05/15 06:19:22;;;;;;;3.33;3.03;;;;;;;;;;4932442;29;20135;-79
2022/05/15 06:21:49;;;;;;;3.67;2.80;;;;;;;;;;4928630;29;20043;-79
2022/05/15 06:24:17;;;;;;;3.83;2.78;;;;;;;;;;4923980;29;20039;-80
2022/05/15 06:26:44;;;;;;;2.78;2.58;;;;;;;;;;4910197;29;20052;-79
2022/05/15 06:29:12;;;;;;;2.90;2.70;;;;;;;;;;4922538;29;20040;-78
2022/05/15 06:31:39;;;;;;;2.67;2.40;;;;;;;;;;4927609;29;20112;-80
2022/05/15 06:34:07;;;;;;;3.10;2.60;;;;;;;;;;4905919;29;20054;-79
2022/05/15 06:36:36;;;;;;;2.70;2.38;;;;;;;;;;4938865;28;20570;-78
2022/05/15 06:39:04;;;;;;;4.25;2.60;;;;;;;;;;4938012;29;20039;-78
2022/05/15 06:41:31;;;;;;;2.20;2.10;;;;;;;;;;4931119;29;20753;-79
2022/05/15 06:44:00;;;;;;;3.85;2.50;;;;;;;;;;4907606;29;20048;-79
2022/05/15 06:46:28;;;;;;;5.43;2.50;;;;;;;;;;4936927;28;20778;-79
2022/05/15 06:48:56;;;;;;;5.20;2.20;;;;;;;;;;4945785;29;20480;-79
2022/05/15 06:51:23;;;;;;;3.72;2.38;;;;;;;;;;4938361;29;20051;-78
2022/05/15 06:53:51;;;;;;;2.78;2.50;;;;;;;;;;4930625;29;20047;-79
2022/05/15 06:59:04;;;;;;;4.47;2.28;;;;;;;;;;4933581;28;20388;-79
2022/05/15 07:01:32;;;;;;;2.28;2.17;;;;;;;;;;4930173;29;20142;-78
2022/05/15 07:04:00;;;;;;;3.72;2.00;;;;;;;;;;4931605;29;20487;-78
2022/05/15 07:06:27;;;;;;;2.22;2.05;;;;;;;;;;4933656;29;20039;-79
2022/05/15 07:08:54;;;;;;;2.42;2.20;;;;;;;;;;4930121;29;20059;-79
2022/05/15 07:11:22;;;;;;;4.65;2.40;;;;;;;;;;4912377;29;20549;-77
2022/05/15 07:13:49;;;;;;;2.28;2.08;;;;;;;;;;4935235;29;20497;-79
2022/05/15 07:16:16;;;;;;;4.18;2.58;;;;;;;;;;4936842;28;20110;-79
2022/05/15 07:18:44;;;;;;;2.60;2.40;;;;;;;;;;4930570;29;20056;-79
2022/05/15 07:21:12;;;;;;;2.45;2.25;;;;;;;;;;4933579;29;20040;-79
2022/05/15 07:23:39;;;;;;;2.50;2.30;;;;;;;;;;4931377;28;20393;-79
2022/05/15 07:26:07;;;;;;;2.80;2.03;;;;;;;;;;4930978;29;20126;-79
2022/05/15 07:28:37;;;;;;;2.50;1.85;;;;;;;;;;4922487;29;20156;-79
2022/05/15 07:31:05;;;;;;;2.42;2.03;;;;;;;;;;4930835;29;20050;-80
2022/05/15 07:33:32;;;;;;;3.47;2.03;;;;;;;;;;4929048;29;20039;-79
2022/05/15 07:36:04;;;;;;;5.65;1.88;;;;;;;;;;4918881;29;20062;-79
2022/05/15 07:38:32;;;;;;;2.92;1.80;;;;;;;;;;4915088;29;20039;-78
2022/05/15 07:41:00;;;;;;;2.83;2.10;;;;;;;;;;4928996;29;20036;-80
2022/05/15 07:43:32;;;;;;;2.83;2.00;;;;;;;;;;4921862;29;20118;-80
2022/05/15 07:46:00;;;;;;;2.05;1.88;;;;;;;;;;4930584;29;20043;-80
2022/05/15 07:48:28;;;;;;;2.75;1.90;;;;;;;;;;4937143;29;20099;-80
2022/05/15 07:50:56;;;;;;;2.38;1.70;;;;;;;;;;4933243;29;20054;-80
2022/05/15 07:53:23;;;;;;;3.47;1.90;;;;;;;;;;4932701;29;20051;-79
2022/05/15 07:55:51;;;;;;;2.88;1.73;;;;;;;;;;4931769;29;20051;-80
2022/05/15 07:58:18;;;;;;;2.45;1.83;;;;;;;;;;4933724;28;20052;-80
2022/05/15 08:00:45;;;;;;;3.63;1.95;;;;;;;;;;4929115;29;20070;-80
2022/05/15 08:03:15;;;;;;;3.85;2.05;;;;;;;;;;4933049;29;20636;-79
2022/05/15 08:08:28;;;;;;;3.95;1.90;;;;;;;;;;4926985;29;20506;-79
2022/05/15 08:10:56;;;;;;;4.97;2.00;;;;;;;;;;4929229;29;20493;-79
2022/05/15 08:13:31;;;;;;;1.80;1.70;;;;;;;;;;4909089;29;20047;-79
2022/05/15 08:15:59;;;;;;;3.70;2.13;;;;;;;;;;4925164;28;20047;-79
2022/05/15 08:24:00;;;;;;;3.03;1.83;;;;;;;;;;4911072;29;20103;-80
2022/05/15 08:26:28;;;;;;;2.13;1.70;;;;;;;;;;4931407;29;20043;-80
2022/05/15 08:28:57;;;;;;;3.30;1.65;;;;;;;;;;4933052;29;20048;-80
2022/05/15 08:31:25;;;;;;;3.53;1.98;;;;;;;;;;4930542;29;20062;-80
2022/05/15 08:33:54;;;;;;;3.00;1.60;;;;;;;;;;4927667;29;20047;-79
2022/05/15 08:36:23;;;;;;;3.72;1.85;;;;;;;;;;4912699;29;20083;-80
2022/05/15 08:38:50;;;;;;;3.55;1.88;;;;;;;;;;4913443;29;20075;-79
2022/05/15 08:41:40;;;;;;;2.95;1.85;;;;;;;;;;4912349;29;20043;-81
2022/05/15 08:44:18;;;;;;;2.97;1.80;;;;;;;;;;4930618;29;20658;-81
2022/05/15 08:47:04;;;;;;;2.63;1.70;;;;;;;;;;4930937;29;20047;-81
2022/05/15 08:49:39;;;;;;;2.72;2.03;;;;;;;;;;4931252;29;20095;-81
2022/05/15 08:52:15;;;;;;;3.10;1.90;;;;;;;;;;4926470;29;20215;-78
2022/05/15 08:54:43;;;;;;;3.17;2.00;;;;;;;;;;4916607;29;20496;-79
2022/05/15 08:57:14;;;;;;;3.38;2.08;;;;;;;;;;4901301;29;20054;-79
2022/05/15 08:59:42;;;;;;;;;;;;;;;;;;4881380;29;20057;-81
2022/05/15 09:02:16;;;;;;;3.03;1.90;;;;;;;;;;4892671;29;19931;-80
2022/05/15 09:04:45;;;;;;;2.45;1.90;;;;;;;;;;4909433;29;20051;-81
2022/05/15 09:07:16;;;;;;;3.13;2.20;;;;;;;;;;4903425;29;20119;-80
2022/05/15 09:09:46;;;;;;;2.42;1.85;;;;;;;;;;4920203;29;20040;-80
2022/05/15 09:12:14;;;;;;;4.63;2.25;;;;;;;;;;4921861;29;20036;-80
2022/05/15 09:14:57;;;;;;;2.55;1.85;;;;;;;;;;4901750;29;20063;-80
2022/05/15 09:17:31;;;;;;;2.88;2.00;;;;;;;;;;4921208;29;20326;-81
2022/05/15 09:20:00;;;;;;;5.63;2.17;;;;;;;;;;4917920;29;20435;-80
2022/05/15 09:22:33;;;;;;;3.00;2.05;;;;;;;;;;4888125;29;20450;-80
2022/05/15 09:25:03;;;;;;;4.05;1.80;;;;;;;;;;4924024;28;20099;-80
2022/05/15 09:27:31;;;;;;;2.17;1.98;;;;;;;;;;4912824;29;20064;-79
2022/05/15 09:30:00;;;;;;;1.80;1.70;;;;;;;;;;4928649;29;20047;-80
2022/05/15 09:32:38;;;;;;;2.90;1.70;;;;;;;;;;4927049;29;20031;-80
2022/05/15 09:35:11;;;;;;;2.13;1.63;;;;;;;;;;4903681;29;20071;-80
2022/05/15 09:40:37;;;;;;;3.97;2.40;;;;;;;;;;4930568;29;20472;-81
2022/05/15 09:43:31;;;;;;;2.05;1.63;;;;;;;;;;4912993;29;20071;-81
2022/05/15 09:46:20;;;;;;;2.88;1.63;;;;;;;;;;4930917;29;20043;-81
2022/05/15 09:48:53;;;;;;;3.78;1.70;;;;;;;;;;4896749;29;20043;-81
2022/05/15 09:51:26;;;;;;;4.63;1.60;;;;;;;;;;4933783;29;20044;-82
2022/05/15 09:53:55;;;;;;;1.60;1.50;;;;;;;;;;4931307;29;20047;-80
2022/05/15 09:56:25;;;;;;;3.22;2.00;;;;;;;;;;4907735;29;20062;-81
2022/05/15 09:58:53;;;;;;;1.70;1.60;;;;;;;;;;4930780;29;20055;-81
2022/05/15 10:01:33;;;;;;;2.78;1.58;;;;;;;;;;4938333;23;20171;-78
2022/05/15 10:04:01;;;;;;;5.07;1.70;;;;;;;;;;4931679;29;20078;-79
2022/05/15 10:06:37;;;;;;;3.63;1.73;;;;;;;;;;4928042;29;20054;-79
2022/05/15 10:09:24;;;;;;;1.58;1.48;;;;;;;;;;4925996;28;20047;-77
2022/05/15 10:11:55;;;;;;;2.45;1.92;;;;;;;;;;4926664;29;20126;-78
2022/05/15 10:14:29;;;;;;;4.25;1.70;;;;;;;;;;4938642;28;20043;-78
2022/05/15 10:16:57;;;;;;;5.53;2.20;;;;;;;;;;4933937;28;20032;-79
2022/05/15 10:19:27;;;;;;;1.98;1.70;;;;;;;;;;4908737;28;20182;-79
2022/05/15 10:22:10;;;;;;;2.85;1.45;;;;;;;;;;4911852;29;20047;-78
2022/05/15 10:24:42;;;;;;;3.55;1.55;;;;;;;;;;4943075;28;20535;-78
2022/05/15 10:27:23;;;;;;;4.07;1.65;;;;;;;;;;4910039;28;20171;-78
2022/05/15 10:29:58;;;;;;;3.60;1.50;;;;;;;;;;4918861;29;20078;-78
2022/05/15 10:32:43;;;;;;;1.90;1.48;;;;;;;;;;4939956;28;21193;-78
2022/05/15 10:35:13;;;;;;;5.00;1.73;;;;;;;;;;4921428;29;20079;-78
2022/05/15 10:37:55;;;;;;;2.15;1.40;;;;;;;;;;4906887;28;20519;-78
2022/05/15 10:40:22;;;;;;;1.80;1.48;;;;;;;;;;4938786;29;20130;-79
2022/05/15 10:43:08;;;;;;;1.58;1.45;;;;;;;;;;4937605;28;20047;-76
2022/05/15 10:45:53;;;;;;;3.45;1.70;;;;;;;;;;4934173;28;20531;-78
2022/05/15 10:48:30;;;;;;;2.97;1.70;;;;;;;;;;4922073;28;20054;-79
2022/05/15 10:51:03;;;;;;;1.98;1.77;;;;;;;;;;4936245;28;20070;-77
2022/05/15 10:59:21;;;;;;;2.42;1.50;;;;;;;;;;4922252;29;20141;-78
2022/05/15 11:01:54;;;;;;;2.47;1.58;;;;;;;;;;4923672;29;20415;-77
2022/05/15 11:04:21;;;;;;;4.00;1.55;;;;;;;;;;4925292;29;20717;-77
2022/05/15 11:06:58;;;;;;;3.75;1.50;;;;;;;;;;4909750;29;20042;-77
2022/05/15 11:09:45;;;;;;;2.33;1.60;;;;;;;;;;4928551;29;21003;-78
2022/05/15 11:12:33;;;;;;;1.52;1.42;;;;;;;;;;4923962;29;20039;-79
2022/05/15 11:15:00;;;;;;;3.72;1.67;;;;;;;;;;4928154;29;20070;-78
2022/05/15 11:17:31;;;;;;;3.20;1.50;;;;;;;;;;4930441;29;20047;-78
2022/05/15 11:20:10;;;;;;;5.33;1.73;;;;;;;;;;4925325;29;20048;-78
2022/05/15 11:22:41;;;;;;;5.30;1.70;;;;;;;;;;4922540;29;20047;-78
2022/05/15 11:25:18;;;;;;;2.50;1.58;;;;;;;;;;4921782;29;20139;-78
2022/05/15 11:27:51;;;;;;;4.85;1.42;;;;;;;;;;4921336;29;20127;-78
2022/05/15 11:30:21;;;;;;;1.95;1.35;;;;;;;;;;4922182;29;20131;-78
2022/05/15 11:32:49;;;;;;;2.40;1.40;;;;;;;;;;4924726;29;20049;-78
2022/05/15 11:35:22;;;;;;;2.92;1.40;;;;;;;;;;4872661;29;20114;-78
2022/05/15 11:37:56;;;;;;;2.17;1.35;;;;;;;;;;4904563;29;20551;-79
2022/05/15 11:40:36;;;;;;;2.25;1.40;;;;;;;;;;4925842;29;20058;-78
2022/05/15 11:43:24;;;;;;;2.97;1.60;;;;;;;;;;4905940;29;20048;-78
2022/05/15 11:46:06;;;;;;;2.97;1.60;;;;;;;;;;4907771;29;20138;-77
2022/05/15 11:48:40;;;;;;;2.95;1.30;;;;;;;;;;4922067;29;20047;-78
2022/05/15 11:51:13;;;;;;;3.13;1.30;;;;;;;;;;4923004;29;20502;-79
2022/05/15 11:53:48;;;;;;;2.83;1.40;;;;;;;;;;4904757;29;20110;-77
2022/05/15 11:56:27;;;;;;;2.67;1.15;;;;;;;;;;4904491;29;20147;-78
2022/05/15 11:59:24;;;;;;;3.88;2.03;;;;;;;;;;4915840;28;20435;-78
2022/05/15 12:02:00;;;;;;;2.13;1.30;;;;;;;;;;4901140;28;20539;-77
2022/05/15 12:04:34;;;;;;;3.22;1.90;;;;;;;;;;4926068;28;20123;-78
2022/05/15 12:07:01;;;;;;;2.95;1.25;;;;;;;;;;4947337;28;20043;-78
2022/05/15 12:09:31;;;;;;;2.25;1.40;;;;;;;;;;4939533;28;20297;-78
2022/05/15 12:12:17;;;;;;;3.70;1.20;;;;;;;;;;4944068;28;20411;-77
2022/05/15 12:15:03;;;;;;;3.03;1.23;;;;;;;;;;4936836;28;20070;-78
2022/05/15 12:17:34;;;;;;;3.05;1.30;;;;;;;;;;4940367;28;20068;-78
2022/05/15 12:20:09;;;;;;;1.80;1.30;;;;;;;;;;4909070;28;20047;-80
2022/05/15 12:22:38;;;;;;;2.92;1.30;;;;;;;;;;4938038;28;20650;-79
2022/05/15 12:25:10;;;;;;;2.08;1.40;;;;;;;;;;4934099;28;20034;-78
2022/05/15 12:28:50;;;;;;;1.77;1.25;;;;;;;;;;4905481;28;20038;-79
2022/05/15 12:30:47;;;;;;;2.03;1.35;;;;;;;;;;4929982;28;20050;-80
2022/05/15 12:33:40;;;;;;;1.90;1.20;;;;;;;;;;4910983;28;20583;-78
2022/05/15 12:36:15;;;;;;;5.63;1.85;;;;;;;;;;4933695;28;20039;-79
2022/05/15 12:38:48;;;;;;;3.00;1.30;;;;;;;;;;4934278;28;20370;-79
2022/05/15 12:41:19;;;;;;;1.80;1.42;;;;;;;;;;4915482;28;20051;-78
2022/05/15 12:43:49;;;;;;;1.45;1.20;;;;;;;;;;4939391;28;20063;-77
2022/05/15 12:46:23;;;;;;;3.60;1.55;;;;;;;;;;4939619;28;20032;-78
2022/05/15 12:48:51;;;;;;;2.75;1.15;;;;;;;;;;4939426;28;20511;-77
2022/05/15 12:51:25;;;;;;;1.05;0.90;;;;;;;;;;4924626;28;20066;-78
2022/05/15 12:53:52;;;;;;;4.43;1.48;;;;;;;;;;4939506;28;20422;-77
2022/05/15 12:56:24;;;;;;;3.50;1.63;;;;;;;;;;4946018;28;20164;-78
2022/05/15 12:58:54;;;;;;;3.20;1.38;;;;;;;;;;4953063;28;20046;-76
2022/05/15 13:01:25;;;;;;;1.55;1.30;;;;;;;;;;4925664;28;20067;-78
2022/05/15 13:03:53;;;;;;;;;;;;;;;;;;4914867;29;20044;-78
2022/05/15 13:06:26;;;;;;;1.25;1.08;;;;;;;;;;4923962;29;19927;-78
2022/05/15 13:08:57;;;;;;;1.77;1.10;;;;;;;;;;4910409;29;20044;-78
2022/05/15 13:11:27;;;;;;;1.73;1.13;;;;;;;;;;4929026;28;20155;-77
2022/05/15 13:13:57;;;;;;;1.75;1.20;;;;;;;;;;4923452;29;20381;-77
2022/05/15 13:16:29;;;;;;;1.17;1.05;;;;;;;;;;4927873;29;20135;-77
2022/05/15 13:19:07;;;;;;;0.98;0.98;;;;;;;;;;4900817;29;20130;-78
2022/05/15 13:21:39;;;;;;;1.20;1.10;;;;;;;;;;4897595;29;20055;-77
2022/05/15 13:24:15;;;;;;;1.60;1.25;;;;;;;;;;4899449;29;20047;-77
2022/05/15 13:26:44;;;;;;;2.15;1.10;;;;;;;;;;4926149;28;20542;-80
2022/05/15 13:29:15;;;;;;;1.55;1.08;;;;;;;;;;4906286;29;20042;-79
2022/05/15 13:31:43;;;;;;;4.43;1.13;;;;;;;;;;4910857;29;20128;-77
2022/05/15 13:34:13;;;;;;;1.63;1.10;;;;;;;;;;4911274;29;20162;-77
2022/05/15 13:36:52;;;;;;;4.72;1.40;;;;;;;;;;4911682;28;20063;-77
2022/05/15 13:45:14;;;;;;;2.10;1.30;;;;;;;;;;4926085;28;20052;-78
2022/05/15 13:48:00;;;;;;;1.67;0.98;;;;;;;;;;4930350;29;20537;-78
2022/05/15 13:50:34;;;;;;;1.10;1.00;;;;;;;;;;4927952;28;20142;-79
2022/05/15 13:53:20;;;;;;;3.10;1.30;;;;;;;;;;4931503;29;20058;-78
2022/05/15 13:55:51;;;;;;;3.75;1.30;;;;;;;;;;4929437;29;20054;-77
2022/05/15 13:58:19;;;;;;;1.92;1.10;;;;;;;;;;4915225;29;20051;-76
2022/05/15 14:01:04;;;;;;;2.58;1.25;;;;;;;;;;4929395;28;20049;-77
2022/05/15 14:03:34;;;;;;;4.03;1.20;;;;;;;;;;4910571;29;20043;-78
2022/05/15 14:06:22;;;;;;;2.50;1.37;;;;;;;;;;4929328;29;20440;-79
2022/05/15 14:08:55;;;;;;;2.65;1.00;;;;;;;;;;4921423;29;20328;-78
2022/05/15 14:11:23;;;;;;;2.75;1.10;;;;;;;;;;4928295;29;20121;-78
2022/05/15 14:13:51;;;;;;;1.95;1.10;;;;;;;;;;4925632;28;20754;-78
2022/05/15 14:16:21;;;;;;;1.92;1.27;;;;;;;;;;4907645;29;20130;-77
2022/05/15 14:18:49;;;;;;;1.17;0.93;;;;;;;;;;4926934;29;20590;-77
2022/05/15 14:21:20;;;;;;;2.25;1.20;;;;;;;;;;4925615;29;20039;-77
2022/05/15 14:23:48;;;;;;;1.10;0.88;;;;;;;;;;4928163;29;20496;-77
2022/05/15 14:26:16;;;;;;;1.50;1.00;;;;;;;;;;4910803;29;20074;-77
2022/05/15 14:28:46;;;;;;;1.77;0.90;;;;;;;;;;4905214;29;20055;-77
2022/05/15 14:31:14;;;;;;;0.90;0.90;;;;;;;;;;4919505;29;20150;-77
2022/05/15 14:33:46;;;;;;;3.45;1.13;;;;;;;;;;4922030;29;20055;-78
2022/05/15 14:36:16;;;;;;;0.93;0.90;;;;;;;;;;4904606;29;20047;-77
2022/05/15 14:38:43;;;;;;;2.13;1.20;;;;;;;;;;4905253;29;20047;-77
2022/05/15 14:41:11;;;;;;;1.10;1.00;;;;;;;;;;4922440;29;20051;-77
2022/05/15 14:43:40;;;;;;;2.05;1.00;;;;;;;;;;4901341;29;20505;-78
2022/05/15 14:46:14;;;;;;;2.92;1.08;;;;;;;;;;4901051;29;20238;-77
2022/05/15 14:48:42;;;;;;;2.70;1.33;;;;;;;;;;4898894;29;20054;-78
2022/05/15 14:51:13;;;;;;;1.35;1.10;;;;;;;;;;4916127;29;20710;-78
2022/05/15 14:53:40;;;;;;;1.20;1.10;;;;;;;;;;4919387;29;20076;-77
2022/05/15 14:56:08;;;;;;;1.33;1.10;;;;;;;;;;4924120;29;20046;-78
2022/05/15 14:58:56;;;;;;;3.50;1.10;;;;;;;;;;4916630;28;20829;-77
2022/05/15 15:01:24;;;;;;;1.67;1.00;;;;;;;;;;4915746;28;20554;-79
2022/05/15 15:03:51;;;;;;;3.30;1.20;;;;;;;;;;4919979;29;20051;-78
2022/05/15 15:06:28;;;;;;;1.67;1.13;;;;;;;;;;4899977;29;20121;-77
2022/05/15 15:08:56;;;;;;;5.47;1.40;;;;;;;;;;4920656;29;20451;-77
2022/05/15 15:11:28;;;;;;;1.75;1.10;;;;;;;;;;4900963;28;20047;-78
2022/05/15 15:14:06;;;;;;;3.28;1.15;;;;;;;;;;4936402;28;20050;-80
2022/05/15 15:16:36;;;;;;;5.45;1.27;;;;;;;;;;4897358;28;20853;-78
2022/05/15 15:19:04;;;;;;;2.63;1.10;;;;;;;;;;4914074;29;20073;-79
2022/05/15 15:21:32;;;;;;;4.55;1.40;;;;;;;;;;4914216;29;20138;-77
2022/05/15 15:24:02;;;;;;;1.85;1.20;;;;;;;;;;4935664;28;20047;-77
2022/05/15 15:26:29;;;;;;;1.92;1.20;;;;;;;;;;4929534;28;20515;-77
2022/05/15 15:28:58;;;;;;;2.30;1.10;;;;;;;;;;4935860;28;20055;-78
2022/05/15 15:31:30;;;;;;;1.15;0.90;;;;;;;;;;4902746;28;20151;-78
2022/05/15 15:33:58;;;;;;;1.20;1.10;;;;;;;;;;4938445;28;20035;-79
2022/05/15 15:36:26;;;;;;;3.20;1.20;;;;;;;;;;4940640;28;20066;-79